Time;durP1;ratioP1;P1;durP2;ratioP2;P2;SDS_P1;SDS_P2;PMS_P1;PMS_P2;Temp;Humidity;BMP_temperature;BMP_pressure;BME280_temperature;BME280_humidity;BME280_pressure;Samples;Min_cycle;Max_cycle;Signal;HPM_P1;HPM_P2
2023/12/07 00:01:20;;;;;;;5.95;3.33;;;11.40;99.90;;;;;;5029364;28;20132;-34
2023/12/07 00:03:46;;;;;;;5.50;2.60;;;12.00;99.90;;;;;;5028048;28;20053;-33
2023/12/07 00:06:11;;;;;;;5.35;2.70;;;11.70;99.90;;;;;;5027702;28;20069;-35
2023/12/07 00:08:37;;;;;;;5.05;2.88;;;11.60;99.90;;;;;;5028204;28;20041;-35
2023/12/07 00:11:03;;;;;;;6.28;2.80;;;12.00;99.90;;;;;;5030400;28;20578;-35
2023/12/07 00:13:28;;;;;;;6.63;2.50;;;11.50;99.90;;;;;;5039832;28;20045;-36
2023/12/07 00:15:54;;;;;;;5.80;2.88;;;11.80;99.90;;;;;;5027912;28;20095;-36
2023/12/07 00:18:20;;;;;;;4.72;2.20;;;11.70;99.90;;;;;;5027300;28;20056;-35
2023/12/07 00:20:45;;;;;;;5.63;2.67;;;11.60;99.90;;;;;;5028019;28;20029;-34
2023/12/07 00:23:11;;;;;;;7.22;2.83;;;11.80;99.90;;;;;;5028864;28;20566;-33
2023/12/07 00:25:37;;;;;;;6.50;3.20;;;11.90;99.90;;;;;;5026601;28;20151;-33
2023/12/07 00:28:03;;;;;;;5.70;2.95;;;11.20;99.90;;;;;;5020255;28;20489;-34
2023/12/07 00:30:29;;;;;;;5.88;2.83;;;11.50;99.90;;;;;;5028712;28;20073;-35
2023/12/07 00:32:55;;;;;;;5.55;2.53;;;11.40;99.90;;;;;;5012013;28;20079;-35
2023/12/07 00:35:22;;;;;;;6.18;2.92;;;;;;;;;;5031390;28;20042;-35
2023/12/07 00:37:48;;;;;;;5.75;2.50;;;12.10;99.90;;;;;;5025645;28;20041;-34
2023/12/07 00:40:14;;;;;;;7.10;3.08;;;12.20;99.90;;;;;;5028854;28;20097;-35
2023/12/07 00:42:39;;;;;;;4.90;2.50;;;11.40;99.90;;;;;;5028846;28;20112;-35
2023/12/07 00:45:05;;;;;;;6.65;2.90;;;11.70;99.90;;;;;;5029343;28;20116;-34
2023/12/07 00:47:31;;;;;;;5.25;2.95;;;11.40;99.90;;;;;;5030258;28;20474;-35
2023/12/07 00:49:56;;;;;;;4.95;2.42;;;11.60;99.90;;;;;;5030192;28;20034;-35
2023/12/07 00:52:22;;;;;;;5.55;2.80;;;;;;;;;;5030922;28;20044;-34
2023/12/07 00:54:48;;;;;;;5.95;2.78;;;11.30;99.90;;;;;;5030979;28;20029;-35
2023/12/07 00:57:14;;;;;;;6.00;2.92;;;11.10;99.90;;;;;;5028508;28;20044;-35
2023/12/07 00:59:39;;;;;;;5.18;2.75;;;12.00;99.90;;;;;;5023743;28;20613;-35
2023/12/07 01:02:06;;;;;;;5.30;2.50;;;12.00;99.90;;;;;;5027003;28;20400;-34
2023/12/07 01:04:32;;;;;;;5.68;2.60;;;11.70;99.90;;;;;;5023668;28;20080;-36
2023/12/07 01:06:58;;;;;;;4.72;2.22;;;12.10;99.90;;;;;;5025530;28;20591;-35
2023/12/07 01:09:25;;;;;;;5.75;2.80;;;11.60;99.90;;;;;;5027127;28;20116;-35
2023/12/07 01:11:51;;;;;;;5.28;2.42;;;12.30;99.90;;;;;;5028949;28;20107;-33
2023/12/07 01:14:17;;;;;;;6.10;2.83;;;11.30;99.90;;;;;;5028113;28;20038;-35
2023/12/07 01:16:43;;;;;;;5.22;2.63;;;11.90;99.90;;;;;;5026633;28;20033;-35
2023/12/07 01:19:10;;;;;;;5.43;2.40;;;11.70;99.90;;;;;;5024029;28;20052;-35
2023/12/07 01:21:36;;;;;;;5.40;2.63;;;11.30;99.90;;;;;;5028493;28;20037;-33
2023/12/07 01:24:02;;;;;;;5.72;2.67;;;11.00;99.90;;;;;;5026091;28;20048;-34
2023/12/07 01:26:27;;;;;;;5.50;2.40;;;11.80;99.90;;;;;;5027911;28;20038;-35
2023/12/07 01:28:53;;;;;;;5.22;2.53;;;12.00;99.90;;;;;;5038787;28;20090;-34
2023/12/07 01:31:19;;;;;;;4.97;2.25;;;11.60;99.90;;;;;;5028609;28;20096;-32
2023/12/07 01:33:44;;;;;;;5.18;2.45;;;11.60;99.90;;;;;;5025775;28;20047;-34
2023/12/07 01:36:11;;;;;;;5.25;2.47;;;11.90;99.90;;;;;;5030046;28;20120;-34
2023/12/07 01:38:36;;;;;;;5.53;2.50;;;11.30;99.90;;;;;;5027591;28;20037;-35
2023/12/07 01:41:02;;;;;;;5.50;2.88;;;11.50;99.90;;;;;;5024756;28;20083;-34
2023/12/07 01:43:28;;;;;;;5.38;2.50;;;11.80;99.90;;;;;;5028341;28;20045;-35
2023/12/07 01:45:57;;;;;;;5.40;2.72;;;12.00;99.90;;;;;;5028073;28;21737;-34
2023/12/07 01:48:24;;;;;;;5.03;2.42;;;11.60;99.90;;;;;;5023926;28;20065;-36
2023/12/07 01:50:51;;;;;;;5.20;2.50;;;11.70;99.90;;;;;;5027057;28;20475;-35
2023/12/07 01:53:17;;;;;;;5.38;2.70;;;12.00;99.90;;;;;;5026846;28;20045;-35
2023/12/07 01:55:43;;;;;;;5.43;2.60;;;11.30;99.90;;;;;;5022083;28;20502;-35
2023/12/07 01:58:10;;;;;;;5.38;2.60;;;11.80;99.90;;;;;;5026952;28;20041;-35
2023/12/07 02:00:36;;;;;;;5.13;2.70;;;11.70;99.90;;;;;;5025967;28;20120;-36
2023/12/07 02:03:04;;;;;;;5.55;2.60;;;11.20;99.90;;;;;;5023924;28;20203;-36
2023/12/07 02:05:31;;;;;;;5.35;2.50;;;11.70;99.90;;;;;;5020596;28;20132;-36
2023/12/07 02:07:57;;;;;;;4.78;2.28;;;11.90;99.90;;;;;;5023749;28;20522;-35
2023/12/07 02:10:24;;;;;;;4.45;2.00;;;11.80;99.90;;;;;;5025134;28;20520;-37
2023/12/07 02:12:50;;;;;;;4.82;1.92;;;11.50;99.90;;;;;;5022873;28;20493;-36
2023/12/07 02:15:16;;;;;;;4.43;1.92;;;11.50;99.90;;;;;;5023906;28;20041;-33
2023/12/07 02:17:50;;;;;;;5.93;2.10;;;12.30;99.90;;;;;;5022277;28;20037;-34
2023/12/07 02:20:29;;;;;;;4.43;2.03;;;11.70;99.90;;;;;;5020196;28;20120;-35
2023/12/07 02:22:56;;;;;;;4.80;2.00;;;11.80;99.90;;;;;;5025697;28;20060;-37
2023/12/07 02:25:27;;;;;;;5.20;2.10;;;11.90;99.90;;;;;;5007508;28;20041;-33
2023/12/07 02:27:53;;;;;;;4.75;2.15;;;11.80;99.90;;;;;;5022232;28;20042;-36
2023/12/07 02:30:18;;;;;;;4.60;2.08;;;11.60;99.90;;;;;;5023665;28;20030;-35
2023/12/07 02:32:45;;;;;;;4.88;2.17;;;12.00;99.90;;;;;;5027203;28;20625;-35
2023/12/07 02:35:12;;;;;;;4.53;1.77;;;12.30;99.90;;;;;;5022276;28;20499;-35
2023/12/07 02:37:52;;;;;;;4.53;1.90;;;11.80;99.90;;;;;;5031559;28;20046;-35
2023/12/07 02:40:20;;;;;;;5.45;2.00;;;12.20;99.90;;;;;;5010318;28;20049;-36
2023/12/07 02:42:47;;;;;;;4.78;2.22;;;12.30;99.90;;;;;;5029185;28;20081;-34
2023/12/07 02:45:13;;;;;;;4.40;1.85;;;11.80;99.90;;;;;;5022992;28;20099;-35
2023/12/07 02:47:39;;;;;;;4.57;1.92;;;12.70;99.90;;;;;;5023418;28;20045;-35
2023/12/07 02:50:06;;;;;;;4.43;2.00;;;12.20;99.90;;;;;;5023931;28;20037;-35
2023/12/07 02:52:32;;;;;;;5.78;2.03;;;12.10;99.90;;;;;;5023681;28;20107;-35
2023/12/07 02:54:58;;;;;;;4.75;2.00;;;12.40;99.90;;;;;;5019408;28;20704;-35
2023/12/07 02:57:24;;;;;;;4.65;1.92;;;;;;;;;;5025155;28;20049;-32
2023/12/07 02:59:49;;;;;;;4.68;1.95;;;12.30;99.90;;;;;;5021997;28;20037;-32
2023/12/07 03:02:15;;;;;;;4.78;1.92;;;12.10;99.90;;;;;;5026754;28;20060;-35
2023/12/07 03:04:41;;;;;;;4.18;1.75;;;12.40;99.90;;;;;;5025742;28;20044;-35
2023/12/07 03:07:07;;;;;;;5.28;1.90;;;12.60;99.90;;;;;;5027363;28;20045;-35
2023/12/07 03:09:32;;;;;;;4.88;1.90;;;12.30;99.90;;;;;;5025788;28;20041;-35
2023/12/07 03:11:58;;;;;;;5.05;2.10;;;12.50;99.90;;;;;;5027448;28;20091;-34
2023/12/07 03:14:23;;;;;;;4.43;1.90;;;13.00;99.90;;;;;;5024750;28;20050;-35
2023/12/07 03:16:49;;;;;;;5.00;2.13;;;12.30;99.90;;;;;;5025343;28;20091;-33
2023/12/07 03:19:15;;;;;;;4.93;1.85;;;12.00;99.90;;;;;;5020571;28;20073;-35
2023/12/07 03:21:42;;;;;;;4.57;1.80;;;12.70;99.90;;;;;;5032694;28;20037;-34
2023/12/07 03:24:08;;;;;;;5.20;2.05;;;12.80;99.90;;;;;;5017892;28;20033;-36
2023/12/07 03:26:34;;;;;;;4.80;2.30;;;11.90;99.90;;;;;;5021410;28;20136;-35
2023/12/07 03:29:00;;;;;;;4.97;2.33;;;12.00;99.90;;;;;;5013842;28;20044;-35
2023/12/07 03:31:26;;;;;;;4.72;2.00;;;12.80;99.90;;;;;;5023820;28;20033;-35
2023/12/07 03:33:52;;;;;;;4.80;2.08;;;12.30;99.90;;;;;;5022163;28;20055;-35
2023/12/07 03:36:17;;;;;;;4.20;1.55;;;12.20;99.90;;;;;;5023481;28;20044;-36
2023/12/07 03:38:43;;;;;;;6.82;2.33;;;12.30;99.90;;;;;;5023017;28;20045;-35
2023/12/07 03:41:09;;;;;;;4.90;2.30;;;12.40;99.90;;;;;;5030198;28;20033;-35
2023/12/07 03:43:34;;;;;;;7.30;1.92;;;12.00;99.90;;;;;;5026332;28;20124;-35
2023/12/07 03:46:04;;;;;;;5.70;1.60;;;12.30;99.90;;;;;;5027454;28;20132;-37
2023/12/07 03:48:30;;;;;;;5.15;1.65;;;12.20;99.90;;;;;;5023798;28;20045;-34
2023/12/07 03:50:56;;;;;;;5.53;1.85;;;12.00;99.90;;;;;;5030846;28;20048;-34
2023/12/07 03:53:21;;;;;;;4.55;1.73;;;12.60;99.90;;;;;;5029761;28;20046;-35
2023/12/07 03:55:47;;;;;;;4.63;1.75;;;12.00;99.90;;;;;;5025573;28;20369;-34
2023/12/07 03:58:13;;;;;;;4.95;2.17;;;12.70;99.90;;;;;;5028427;28;20033;-35
2023/12/07 04:00:39;;;;;;;5.40;2.13;;;12.60;99.90;;;;;;5023769;28;20067;-35
2023/12/07 04:03:05;;;;;;;4.72;2.10;;;13.00;99.90;;;;;;5028629;28;20588;-34
2023/12/07 04:05:31;;;;;;;4.82;1.95;;;12.60;99.90;;;;;;5030855;28;20137;-36
2023/12/07 04:07:57;;;;;;;4.88;1.90;;;13.00;99.90;;;;;;5029906;28;20550;-35
2023/12/07 04:10:23;;;;;;;5.30;2.10;;;12.20;99.90;;;;;;5030621;28;20042;-34
2023/12/07 04:12:49;;;;;;;4.05;1.60;;;12.20;99.90;;;;;;5031058;28;20038;-34
2023/12/07 04:15:15;;;;;;;4.65;1.77;;;12.20;99.90;;;;;;5026532;28;20045;-36
2023/12/07 04:17:40;;;;;;;6.13;2.40;;;12.20;99.90;;;;;;5028031;28;20029;-37
2023/12/07 04:20:07;;;;;;;7.53;2.00;;;12.40;99.90;;;;;;5030142;28;20045;-35
2023/12/07 04:22:33;;;;;;;3.92;1.50;;;12.00;99.90;;;;;;5037125;28;20044;-36
2023/12/07 04:24:58;;;;;;;4.65;2.05;;;12.60;99.90;;;;;;5030553;28;20033;-35
2023/12/07 04:27:24;;;;;;;6.18;2.25;;;12.20;99.90;;;;;;5025367;28;20060;-35
2023/12/07 04:29:50;;;;;;;4.72;1.65;;;12.50;99.90;;;;;;5038785;28;20042;-36
2023/12/07 04:32:15;;;;;;;4.45;1.80;;;11.90;99.90;;;;;;5030198;28;20083;-35
2023/12/07 04:34:41;;;;;;;4.07;1.80;;;12.30;99.90;;;;;;5018410;28;20478;-35
2023/12/07 04:37:07;;;;;;;5.00;1.90;;;12.20;99.90;;;;;;5019970;28;20092;-35
2023/12/07 04:39:32;;;;;;;4.65;1.67;;;12.10;99.90;;;;;;5025723;28;20072;-32
2023/12/07 04:41:58;;;;;;;4.50;1.80;;;12.30;99.90;;;;;;5026576;28;20064;-35
2023/12/07 04:44:25;;;;;;;6.10;2.20;;;12.60;99.90;;;;;;5026923;28;20044;-35
2023/12/07 04:46:51;;;;;;;4.72;1.70;;;12.30;99.90;;;;;;5026807;28;20088;-35
2023/12/07 04:49:18;;;;;;;4.60;1.88;;;12.40;99.90;;;;;;5027806;28;20052;-35
2023/12/07 04:51:46;;;;;;;4.05;1.65;;;11.80;99.90;;;;;;5023500;28;20041;-33
2023/12/07 04:54:14;;;;;;;5.97;1.92;;;12.80;99.90;;;;;;5024439;28;20053;-36
2023/12/07 04:56:41;;;;;;;4.10;1.67;;;12.20;99.90;;;;;;5028378;28;20053;-35
2023/12/07 04:59:07;;;;;;;4.60;1.92;;;12.00;99.90;;;;;;5025907;28;20523;-35
2023/12/07 05:01:32;;;;;;;5.47;2.00;;;12.30;99.90;;;;;;5027505;28;20034;-35
2023/12/07 05:03:58;;;;;;;4.53;1.88;;;12.30;99.90;;;;;;5026746;28;20545;-35
2023/12/07 05:06:24;;;;;;;4.20;1.83;;;12.20;99.90;;;;;;5031214;28;20041;-34
2023/12/07 05:08:50;;;;;;;4.60;1.80;;;12.20;99.90;;;;;;5029611;28;20404;-35
2023/12/07 05:11:16;;;;;;;4.78;1.98;;;12.90;99.90;;;;;;5021825;28;20038;-35
2023/12/07 05:13:41;;;;;;;4.05;1.75;;;12.20;99.90;;;;;;5022484;28;20048;-35
2023/12/07 05:16:10;;;;;;;5.57;1.98;;;12.40;99.90;;;;;;5029021;28;20045;-34
2023/12/07 05:18:36;;;;;;;4.90;1.92;;;12.40;99.90;;;;;;5027281;28;20041;-34
2023/12/07 05:21:01;;;;;;;4.82;1.77;;;12.60;99.90;;;;;;5028983;28;20501;-35
2023/12/07 05:23:27;;;;;;;4.93;2.13;;;12.30;99.90;;;;;;5029137;28;20147;-34
2023/12/07 05:25:54;;;;;;;4.35;1.77;;;12.00;99.90;;;;;;5029608;28;20064;-36
2023/12/07 05:28:19;;;;;;;5.45;2.00;;;12.30;99.90;;;;;;5012095;28;20052;-35
2023/12/07 05:30:45;;;;;;;6.75;2.40;;;12.00;99.90;;;;;;5029551;28;20037;-35
2023/12/07 05:33:11;;;;;;;33.60;9.25;;;12.30;99.90;;;;;;5028202;28;20046;-35
2023/12/07 05:35:37;;;;;;;37.85;10.77;;;12.30;99.90;;;;;;5027716;28;20105;-36
2023/12/07 05:38:03;;;;;;;48.63;9.40;;;12.20;99.90;;;;;;5027785;28;20116;-35
2023/12/07 05:40:28;;;;;;;25.85;6.93;;;12.50;99.90;;;;;;5019865;28;20505;-35
2023/12/07 05:42:55;;;;;;;19.55;6.65;;;12.90;99.90;;;;;;5025159;28;20045;-36
2023/12/07 05:45:21;;;;;;;28.65;9.15;;;12.90;99.90;;;;;;5025078;28;20042;-33
2023/12/07 05:47:46;;;;;;;27.60;8.52;;;12.40;99.90;;;;;;5017562;28;20068;-38
2023/12/07 05:50:12;;;;;;;30.25;9.18;;;12.40;99.90;;;;;;5015931;28;20480;-33
2023/12/07 05:52:37;;;;;;;17.63;6.82;;;12.60;99.90;;;;;;5021787;28;20460;-35
2023/12/07 05:55:04;;;;;;;27.30;7.45;;;12.70;99.90;;;;;;5021712;28;20033;-35
2023/12/07 05:57:31;;;;;;;19.63;6.30;;;12.50;99.90;;;;;;5017288;28;20120;-33
2023/12/07 05:59:56;;;;;;;19.85;6.88;;;12.80;99.90;;;;;;5020485;28;20099;-38
2023/12/07 06:02:22;;;;;;;17.58;5.40;;;12.20;99.90;;;;;;5019457;28;20485;-38
2023/12/07 06:04:47;;;;;;;15.85;5.13;;;12.40;99.90;;;;;;5023441;28;20492;-36
2023/12/07 06:07:13;;;;;;;16.77;6.65;;;12.50;99.90;;;;;;5023938;28;20049;-34
2023/12/07 06:09:39;;;;;;;19.75;6.35;;;12.90;99.90;;;;;;5021527;28;20041;-36
2023/12/07 06:12:04;;;;;;;13.90;6.28;;;12.30;99.90;;;;;;5022479;28;20192;-35
2023/12/07 06:14:32;;;;;;;14.85;5.63;;;12.60;99.90;;;;;;5037951;28;20493;-33
2023/12/07 06:16:59;;;;;;;29.63;8.45;;;;;;;;;;5018240;28;20164;-35
2023/12/07 06:19:25;;;;;;;28.90;8.85;;;12.60;99.90;;;;;;5020661;28;20038;-35
2023/12/07 06:21:50;;;;;;;21.08;7.60;;;13.10;99.90;;;;;;5023264;28;20378;-35
2023/12/07 06:24:16;;;;;;;27.80;8.15;;;12.60;99.90;;;;;;5024503;28;20047;-35
2023/12/07 06:26:42;;;;;;;21.65;6.60;;;12.30;99.90;;;;;;5020459;28;20409;-35
2023/12/07 06:29:07;;;;;;;14.88;6.38;;;13.10;99.90;;;;;;5021513;28;20045;-36
2023/12/07 06:31:33;;;;;;;16.25;5.70;;;12.30;99.90;;;;;;5018770;28;20119;-33
2023/12/07 06:34:00;;;;;;;14.02;5.25;;;12.30;99.90;;;;;;5022550;28;20517;-35
2023/12/07 06:36:26;;;;;;;14.57;4.90;;;;;;;;;;5023599;28;20034;-36
2023/12/07 06:38:54;;;;;;;16.85;5.35;;;12.20;99.90;;;;;;5020305;28;20034;-35
2023/12/07 06:41:20;;;;;;;15.52;4.65;;;12.50;99.90;;;;;;5025377;28;20404;-35
2023/12/07 06:43:46;;;;;;;11.48;4.22;;;12.70;99.90;;;;;;5020355;28;20042;-33
2023/12/07 06:46:12;;;;;;;11.00;4.20;;;12.00;99.90;;;;;;5019746;28;20034;-34
2023/12/07 06:48:38;;;;;;;13.15;4.90;;;13.10;99.90;;;;;;5035486;28;20092;-35
2023/12/07 06:51:04;;;;;;;10.95;3.67;;;12.30;99.90;;;;;;5026438;28;20033;-33
2023/12/07 06:53:31;;;;;;;7.88;3.28;;;12.40;99.90;;;;;;5019842;28;20497;-35
2023/12/07 06:55:57;;;;;;;12.50;3.78;;;12.50;99.90;;;;;;5021158;28;20148;-35
2023/12/07 06:58:23;;;;;;;8.15;3.17;;;12.30;99.90;;;;;;5029265;28;20042;-36
2023/12/07 07:00:49;;;;;;;9.35;3.80;;;13.20;99.90;;;;;;5024840;28;20060;-35
2023/12/07 07:03:15;;;;;;;7.28;3.13;;;12.30;99.90;;;;;;5024795;28;20049;-36
2023/12/07 07:05:41;;;;;;;9.35;3.50;;;11.60;99.90;;;;;;5021518;28;20042;-35
2023/12/07 07:08:07;;;;;;;8.77;3.28;;;12.00;99.90;;;;;;4962412;28;20417;-35
2023/12/07 07:10:34;;;;;;;8.68;3.22;;;;;;;;;;5008193;28;20050;-36
2023/12/07 07:13:04;;;;;;;6.75;3.00;;;12.20;99.90;;;;;;5003551;28;20037;-35
2023/12/07 07:15:31;;;;;;;8.27;2.72;;;12.20;99.90;;;;;;5024262;28;20041;-35
2023/12/07 07:17:57;;;;;;;6.82;3.15;;;12.20;99.90;;;;;;5018370;28;20041;-33
2023/12/07 07:20:23;;;;;;;6.65;3.20;;;11.90;99.90;;;;;;4993408;28;20043;-34
2023/12/07 07:22:48;;;;;;;6.78;3.20;;;12.20;99.90;;;;;;5019522;28;20412;-33
2023/12/07 07:25:19;;;;;;;7.53;2.95;;;11.60;99.90;;;;;;5020720;28;20174;-36
2023/12/07 07:27:48;;;;;;;6.47;3.20;;;12.00;99.90;;;;;;5030316;28;20088;-33
2023/12/07 07:30:14;;;;;;;6.30;2.80;;;;;;;;;;5017349;28;20094;-35
2023/12/07 07:32:40;;;;;;;6.53;2.83;;;;;;;;;;5019248;28;20211;-34
2023/12/07 07:35:06;;;;;;;6.30;3.13;;;11.90;99.90;;;;;;5019051;28;20634;-34
2023/12/07 07:37:33;;;;;;;6.47;2.67;;;11.80;99.90;;;;;;5021951;28;20148;-35
2023/12/07 07:39:59;;;;;;;6.75;2.85;;;12.10;99.90;;;;;;5021137;28;20038;-36
2023/12/07 07:42:25;;;;;;;6.28;2.60;;;12.40;99.90;;;;;;5023347;28;20094;-35
2023/12/07 07:44:51;;;;;;;5.90;2.80;;;12.20;99.90;;;;;;5020234;28;20041;-36
2023/12/07 07:47:17;;;;;;;6.18;2.60;;;12.30;99.90;;;;;;5023407;28;20049;-35
2023/12/07 07:49:42;;;;;;;5.40;2.40;;;12.30;99.90;;;;;;5022300;28;20822;-35
2023/12/07 07:52:08;;;;;;;6.03;2.45;;;12.20;99.90;;;;;;5022330;28;20041;-36
2023/12/07 07:54:34;;;;;;;6.90;3.22;;;11.80;99.90;;;;;;5021720;28;20037;-35
2023/12/07 07:56:59;;;;;;;5.55;2.60;;;11.40;99.90;;;;;;5021698;28;20041;-34
2023/12/07 07:59:25;;;;;;;5.93;2.83;;;12.30;99.90;;;;;;5020684;28;20412;-35
2023/12/07 08:01:51;;;;;;;6.70;3.25;;;12.70;99.90;;;;;;5021849;28;20142;-36
2023/12/07 08:04:16;;;;;;;5.82;2.22;;;11.60;99.90;;;;;;5019866;28;20049;-34
2023/12/07 08:06:42;;;;;;;6.15;2.40;;;11.90;99.90;;;;;;5021470;28;20139;-35
2023/12/07 08:09:09;;;;;;;4.72;2.42;;;12.10;99.90;;;;;;5021728;28;20144;-35
2023/12/07 08:11:35;;;;;;;5.47;2.47;;;12.30;99.90;;;;;;5035787;28;20045;-35
2023/12/07 08:14:00;;;;;;;5.45;2.53;;;12.00;99.90;;;;;;5021678;28;20036;-34
2023/12/07 08:16:27;;;;;;;5.70;2.75;;;12.10;99.90;;;;;;5024048;28;20476;-35
2023/12/07 08:18:53;;;;;;;5.65;2.42;;;11.80;99.90;;;;;;5023976;28;20378;-35
2023/12/07 08:21:23;;;;;;;5.82;2.85;;;11.80;99.90;;;;;;5022723;28;20037;-34
2023/12/07 08:23:48;;;;;;;6.47;2.80;;;12.10;99.90;;;;;;5022180;28;20468;-34
2023/12/07 08:26:14;;;;;;;6.32;3.03;;;12.00;99.90;;;;;;5022857;28;20030;-36
2023/12/07 08:28:41;;;;;;;5.35;2.40;;;11.90;99.90;;;;;;5022799;28;20037;-34
2023/12/07 08:31:07;;;;;;;6.03;2.83;;;11.50;99.90;;;;;;5022872;28;20038;-35
2023/12/07 08:33:37;;;;;;;5.70;2.90;;;11.90;99.90;;;;;;5035484;28;20053;-35
2023/12/07 08:36:03;;;;;;;5.85;2.35;;;12.00;99.90;;;;;;5021758;28;20048;-33
2023/12/07 08:38:29;;;;;;;5.50;2.65;;;11.70;99.90;;;;;;5022006;28;20646;-35
2023/12/07 08:40:54;;;;;;;5.75;2.92;;;11.90;99.90;;;;;;5021614;28;20033;-35
2023/12/07 08:43:24;;;;;;;5.35;2.80;;;12.10;99.90;;;;;;5022003;28;20061;-35
2023/12/07 08:45:51;;;;;;;5.68;2.85;;;11.50;99.90;;;;;;5020599;28;20041;-35
2023/12/07 08:48:16;;;;;;;5.55;3.05;;;12.00;99.90;;;;;;5003113;28;20053;-36
2023/12/07 08:50:42;;;;;;;5.43;2.60;;;11.90;99.90;;;;;;5022508;28;20415;-34
2023/12/07 08:53:07;;;;;;;6.63;2.95;;;11.30;99.90;;;;;;5022748;28;20080;-35
2023/12/07 08:55:33;;;;;;;6.88;3.10;;;12.20;99.90;;;;;;5020610;28;20087;-35
2023/12/07 08:58:00;;;;;;;6.68;2.97;;;12.00;99.90;;;;;;5019941;28;20033;-35
2023/12/07 09:00:26;;;;;;;6.28;3.05;;;12.00;99.90;;;;;;5022302;28;20037;-35
2023/12/07 09:02:52;;;;;;;5.68;2.83;;;11.20;99.90;;;;;;5022269;28;20038;-35
2023/12/07 09:05:18;;;;;;;6.88;3.40;;;11.90;99.90;;;;;;5022308;28;20036;-34
2023/12/07 09:07:44;;;;;;;6.13;3.15;;;12.00;99.90;;;;;;5037818;28;20036;-35
2023/12/07 09:10:10;;;;;;;7.05;3.15;;;11.90;99.90;;;;;;5021098;28;20049;-33
2023/12/07 09:12:36;;;;;;;5.97;3.17;;;11.90;99.90;;;;;;5021968;28;20042;-35
2023/12/07 09:15:07;;;;;;;5.05;2.88;;;11.30;99.90;;;;;;5020889;28;20067;-35
2023/12/07 09:17:33;;;;;;;5.57;3.22;;;;;;;;;;5019393;28;20045;-35
2023/12/07 09:19:59;;;;;;;5.45;3.20;;;11.60;99.90;;;;;;5020469;28;20144;-35
2023/12/07 09:22:25;;;;;;;6.20;3.35;;;11.80;99.90;;;;;;5018581;28;20033;-36
2023/12/07 09:24:51;;;;;;;5.38;3.05;;;11.20;99.90;;;;;;5018893;28;20049;-34
2023/12/07 09:27:16;;;;;;;5.72;3.20;;;11.30;99.90;;;;;;5021414;28;20128;-33
2023/12/07 09:29:42;;;;;;;5.85;3.20;;;11.80;99.90;;;;;;5019891;28;20420;-36
2023/12/07 09:32:08;;;;;;;6.22;3.40;;;11.70;99.90;;;;;;5020483;28;20040;-37
2023/12/07 09:34:34;;;;;;;6.95;3.17;;;11.20;99.90;;;;;;5020667;28;20041;-36
2023/12/07 09:37:26;;;;;;;6.50;3.53;;;11.30;99.90;;;;;;5017446;28;20033;-35
2023/12/07 09:39:51;;;;;;;5.93;2.80;;;12.30;99.90;;;;;;5018044;28;20056;-35
2023/12/07 09:42:17;;;;;;;6.40;3.30;;;11.80;99.90;;;;;;5018828;28;20412;-33
2023/12/07 09:44:42;;;;;;;7.65;3.72;;;11.50;99.90;;;;;;5018462;28;20045;-39
2023/12/07 09:47:11;;;;;;;6.30;3.35;;;11.70;99.90;;;;;;5019729;28;20049;-35
2023/12/07 09:49:37;;;;;;;5.75;3.35;;;11.80;99.90;;;;;;5021273;28;20047;-35
2023/12/07 09:52:04;;;;;;;6.43;3.83;;;12.10;99.90;;;;;;5019059;28;20516;-35
2023/12/07 09:54:30;;;;;;;8.02;3.65;;;11.20;99.90;;;;;;5018484;28;20049;-35
2023/12/07 09:56:56;;;;;;;6.22;3.55;;;12.00;99.90;;;;;;5020597;28;20120;-33
2023/12/07 09:59:22;;;;;;;6.30;3.42;;;11.20;99.90;;;;;;5017092;28;20048;-36
2023/12/07 10:01:48;;;;;;;7.95;3.58;;;11.10;99.90;;;;;;5021371;28;20029;-35
2023/12/07 10:04:25;;;;;;;6.53;3.67;;;11.70;99.90;;;;;;5017588;28;20386;-33
2023/12/07 10:06:53;;;;;;;6.30;3.47;;;12.10;99.90;;;;;;5016974;28;20042;-34
2023/12/07 10:09:20;;;;;;;6.10;3.08;;;11.60;99.90;;;;;;5019737;28;20115;-34
2023/12/07 10:11:46;;;;;;;5.60;3.35;;;11.70;99.90;;;;;;5019158;28;20069;-35
2023/12/07 10:14:12;;;;;;;6.55;3.80;;;11.70;99.90;;;;;;5019234;28;20045;-34
2023/12/07 10:16:38;;;;;;;6.53;3.80;;;11.90;99.90;;;;;;5015417;28;20408;-35
2023/12/07 10:19:21;;;;;;;7.47;3.40;;;;;;;;;;5017744;28;20632;-36
2023/12/07 10:21:53;;;;;;;6.90;3.75;;;11.30;99.90;;;;;;5020953;28;20044;-34
2023/12/07 10:24:25;;;;;;;6.05;3.45;;;11.70;99.90;;;;;;4998822;28;20042;-34
2023/12/07 10:26:52;;;;;;;6.32;3.40;;;11.30;99.90;;;;;;5020135;28;20033;-35
2023/12/07 10:29:23;;;;;;;6.50;3.42;;;12.00;99.90;;;;;;5018363;28;20037;-36
2023/12/07 10:31:49;;;;;;;5.50;3.40;;;11.50;99.90;;;;;;5017045;28;20046;-33
2023/12/07 10:34:19;;;;;;;7.15;4.07;;;11.40;99.90;;;;;;5019796;28;20044;-34
2023/12/07 10:36:47;;;;;;;5.88;3.70;;;11.60;99.90;;;;;;5020360;28;20037;-34
2023/12/07 10:39:13;;;;;;;7.13;4.32;;;11.10;99.90;;;;;;5017891;28;20420;-35
2023/12/07 10:41:43;;;;;;;7.65;3.67;;;11.80;99.90;;;;;;5015783;28;20045;-38
2023/12/07 10:44:13;;;;;;;5.82;3.50;;;11.30;99.90;;;;;;5018957;28;20056;-34
2023/12/07 10:46:42;;;;;;;7.63;4.10;;;11.70;99.90;;;;;;5018613;28;20037;-34
2023/12/07 10:49:14;;;;;;;6.75;4.05;;;11.50;99.90;;;;;;5018597;28;20084;-35
2023/12/07 10:51:47;;;;;;;7.95;4.18;;;11.60;99.90;;;;;;5020440;28;20061;-35
2023/12/07 10:54:18;;;;;;;6.75;3.83;;;11.20;99.90;;;;;;5019708;28;20037;-34
2023/12/07 10:56:45;;;;;;;7.20;3.83;;;11.60;99.90;;;;;;5017216;28;20131;-33
2023/12/07 10:59:12;;;;;;;6.57;4.00;;;11.10;99.90;;;;;;5017124;28;20641;-34
2023/12/07 11:01:42;;;;;;;6.65;3.72;;;11.80;99.90;;;;;;5019872;28;20079;-36
2023/12/07 11:04:12;;;;;;;6.90;3.92;;;11.80;99.90;;;;;;5033195;28;20063;-35
2023/12/07 11:06:46;;;;;;;6.88;3.80;;;11.10;99.90;;;;;;5021322;28;20046;-36
2023/12/07 11:09:25;;;;;;;7.43;4.05;;;11.50;99.90;;;;;;5018454;28;20052;-32
2023/12/07 11:12:08;;;;;;;6.88;3.80;;;11.60;99.90;;;;;;5017395;28;20042;-35
2023/12/07 11:14:33;;;;;;;8.30;4.30;;;11.70;99.90;;;;;;5017953;28;20046;-36
2023/12/07 11:16:59;;;;;;;6.47;3.88;;;11.10;99.90;;;;;;5019229;28;20067;-36
2023/12/07 11:19:37;;;;;;;6.65;4.05;;;11.80;99.90;;;;;;5018202;28;20129;-38
2023/12/07 11:22:06;;;;;;;6.93;3.75;;;11.50;99.90;;;;;;5020169;28;20097;-38
2023/12/07 11:24:31;;;;;;;6.72;4.22;;;11.80;99.90;;;;;;5017010;28;20060;-35
2023/12/07 11:26:58;;;;;;;7.97;4.50;;;11.50;99.90;;;;;;5019506;28;20045;-35
2023/12/07 11:29:31;;;;;;;6.88;3.95;;;12.50;99.90;;;;;;5017825;28;20041;-36
2023/12/07 11:32:04;;;;;;;6.93;4.32;;;11.70;99.90;;;;;;5012486;28;21238;-35
2023/12/07 11:34:37;;;;;;;6.93;3.92;;;11.60;99.90;;;;;;5026359;28;20176;-34
2023/12/07 11:37:03;;;;;;;6.88;4.13;;;11.90;99.90;;;;;;5016030;28;20072;-35
2023/12/07 11:39:34;;;;;;;6.35;3.95;;;11.40;99.90;;;;;;5017234;28;20045;-35
2023/12/07 11:42:07;;;;;;;7.15;3.65;;;11.50;99.90;;;;;;5017244;28;20069;-35
2023/12/07 11:44:37;;;;;;;6.35;4.03;;;11.60;99.90;;;;;;5016416;28;20500;-35
2023/12/07 11:47:03;;;;;;;7.30;4.43;;;11.70;99.90;;;;;;5018588;28;20417;-35
2023/12/07 11:49:31;;;;;;;6.88;3.95;;;11.40;99.90;;;;;;5032337;28;20130;-36
2023/12/07 11:51:57;;;;;;;7.00;4.35;;;11.80;99.90;;;;;;5019212;28;20444;-35
2023/12/07 11:54:23;;;;;;;6.50;3.70;;;11.80;99.90;;;;;;5021755;28;20050;-33
2023/12/07 11:56:55;;;;;;;6.45;3.58;;;11.90;99.90;;;;;;5020595;28;20083;-36
2023/12/07 11:59:27;;;;;;;6.72;3.88;;;11.90;99.90;;;;;;5021660;28;20041;-37
2023/12/07 12:01:53;;;;;;;6.93;3.90;;;11.50;99.90;;;;;;5017858;28;20156;-35
2023/12/07 12:04:19;;;;;;;6.65;3.70;;;11.50;99.90;;;;;;5022897;28;20476;-33
2023/12/07 12:06:45;;;;;;;6.88;4.35;;;11.70;99.90;;;;;;5019664;28;20052;-35
2023/12/07 12:09:17;;;;;;;6.80;4.50;;;11.00;99.90;;;;;;5020914;28;20410;-34
2023/12/07 12:11:49;;;;;;;6.43;3.90;;;11.90;99.90;;;;;;5022660;28;20574;-35
2023/12/07 12:14:16;;;;;;;7.45;4.55;;;11.60;99.90;;;;;;5018854;28;20033;-38
2023/12/07 12:16:45;;;;;;;7.15;4.10;;;11.60;99.90;;;;;;5037852;28;21260;-36
2023/12/07 12:19:11;;;;;;;7.38;4.35;;;11.50;99.90;;;;;;5020619;28;20143;-35
2023/12/07 12:21:40;;;;;;;7.22;4.25;;;11.80;99.90;;;;;;5020006;28;20060;-38
2023/12/07 12:24:07;;;;;;;8.40;4.30;;;11.70;99.90;;;;;;5020549;28;20048;-33
2023/12/07 12:26:34;;;;;;;8.07;4.05;;;11.50;99.90;;;;;;5020599;28;20882;-36
2023/12/07 12:29:01;;;;;;;7.63;4.35;;;11.50;99.90;;;;;;5020067;28;20575;-35
2023/12/07 12:31:28;;;;;;;7.20;4.25;;;11.60;99.90;;;;;;5020915;28;20045;-34
2023/12/07 12:33:53;;;;;;;6.45;3.83;;;11.90;99.90;;;;;;5020346;28;20132;-33
2023/12/07 12:36:23;;;;;;;8.43;3.83;;;11.60;99.90;;;;;;5021084;28;20504;-35
2023/12/07 12:38:50;;;;;;;7.15;4.00;;;11.80;99.90;;;;;;5021754;28;20048;-36
2023/12/07 12:41:20;;;;;;;6.88;4.20;;;11.50;99.90;;;;;;5021864;28;20033;-33
2023/12/07 12:43:46;;;;;;;7.55;3.70;;;11.20;99.90;;;;;;5021452;28;20041;-35
2023/12/07 12:46:13;;;;;;;6.68;4.25;;;11.90;99.90;;;;;;5020633;28;20534;-35